sensor_id;sensor_type;location;lat;lon;timestamp;pressure;altitude;pressure_sealevel;temperature;humidity
14117;BME280;7137;51.436;6.544;2023-01-25T00:01:02;103293.16;;;3.32;77.25
14117;BME280;7137;51.436;6.544;2023-01-25T00:04:04;103294.47;;;3.22;78.21
14117;BME280;7137;51.436;6.544;2023-01-25T00:07:07;103288.72;;;3.27;77.87
14117;BME280;7137;51.436;6.544;2023-01-25T00:10:10;103291.41;;;3.31;77.45
14117;BME280;7137;51.436;6.544;2023-01-25T00:13:11;103293.38;;;3.15;77.72
14117;BME280;7137;51.436;6.544;2023-01-25T00:16:13;103292.66;;;3.19;76.91
14117;BME280;7137;51.436;6.544;2023-01-25T00:19:14;103282.03;;;3.12;77.79
14117;BME280;7137;51.436;6.544;2023-01-25T00:22:17;103278.88;;;3.19;77.38
14117;BME280;7137;51.436;6.544;2023-01-25T00:25:19;103277.50;;;3.06;78.33
14117;BME280;7137;51.436;6.544;2023-01-25T00:28:20;103282.66;;;3.06;78.66
14117;BME280;7137;51.436;6.544;2023-01-25T00:31:26;103274.84;;;3.05;78.92
14117;BME280;7137;51.436;6.544;2023-01-25T00:34:44;103274.09;;;3.07;79.37
14117;BME280;7137;51.436;6.544;2023-01-25T00:37:47;103270.69;;;3.08;79.05
14117;BME280;7137;51.436;6.544;2023-01-25T00:40:49;103268.19;;;3.10;78.90
14117;BME280;7137;51.436;6.544;2023-01-25T00:43:51;103266.63;;;3.13;79.48
14117;BME280;7137;51.436;6.544;2023-01-25T00:46:52;103267.28;;;3.09;78.63
14117;BME280;7137;51.436;6.544;2023-01-25T00:49:55;103253.00;;;3.17;78.26
14117;BME280;7137;51.436;6.544;2023-01-25T00:52:58;103261.25;;;3.09;78.22
14117;BME280;7137;51.436;6.544;2023-01-25T00:55:59;103264.09;;;3.15;76.79
14117;BME280;7137;51.436;6.544;2023-01-25T00:59:01;103255.06;;;3.05;77.88
14117;BME280;7137;51.436;6.544;2023-01-25T01:02:03;103255.97;;;3.06;78.07
14117;BME280;7137;51.436;6.544;2023-01-25T01:05:05;103256.59;;;3.00;78.88
14117;BME280;7137;51.436;6.544;2023-01-25T01:08:08;103257.44;;;2.99;79.16
14117;BME280;7137;51.436;6.544;2023-01-25T01:11:11;103256.50;;;2.97;79.58
14117;BME280;7137;51.436;6.544;2023-01-25T01:14:13;103255.84;;;3.03;79.33
14117;BME280;7137;51.436;6.544;2023-01-25T01:17:15;103260.84;;;3.20;77.61
14117;BME280;7137;51.436;6.544;2023-01-25T01:20:17;103251.63;;;3.05;79.05
14117;BME280;7137;51.436;6.544;2023-01-25T01:23:20;103256.53;;;2.98;79.19
14117;BME280;7137;51.436;6.544;2023-01-25T01:26:22;103255.03;;;3.04;79.06
14117;BME280;7137;51.436;6.544;2023-01-25T01:29:24;103253.16;;;3.00;79.37
14117;BME280;7137;51.436;6.544;2023-01-25T01:32:25;103251.44;;;3.00;79.96
14117;BME280;7137;51.436;6.544;2023-01-25T01:35:27;103251.44;;;3.00;79.78
14117;BME280;7137;51.436;6.544;2023-01-25T01:38:31;103254.09;;;3.02;79.39
14117;BME280;7137;51.436;6.544;2023-01-25T01:41:33;103255.84;;;3.03;79.78
14117;BME280;7137;51.436;6.544;2023-01-25T01:44:45;103249.97;;;3.07;78.86
14117;BME280;7137;51.436;6.544;2023-01-25T01:47:47;103246.44;;;3.05;78.81
14117;BME280;7137;51.436;6.544;2023-01-25T01:50:52;103248.84;;;3.00;78.97
14117;BME280;7137;51.436;6.544;2023-01-25T01:53:59;103243.69;;;3.00;79.55
14117;BME280;7137;51.436;6.544;2023-01-25T01:57:06;103247.16;;;3.01;79.10
14117;BME280;7137;51.436;6.544;2023-01-25T02:00:13;103244.81;;;3.07;78.61
14117;BME280;7137;51.436;6.544;2023-01-25T02:03:17;103233.03;;;2.92;79.33
14117;BME280;7137;51.436;6.544;2023-01-25T02:06:25;103246.88;;;2.94;78.94
14117;BME280;7137;51.436;6.544;2023-01-25T02:09:31;103242.50;;;2.92;79.60
14117;BME280;7137;51.436;6.544;2023-01-25T02:12:34;103239.56;;;2.83;79.28
14117;BME280;7137;51.436;6.544;2023-01-25T02:15:41;103242.31;;;2.87;79.84
14117;BME280;7137;51.436;6.544;2023-01-25T02:18:43;103242.44;;;2.90;79.33
14117;BME280;7137;51.436;6.544;2023-01-25T02:21:46;103240.72;;;2.91;79.71
14117;BME280;7137;51.436;6.544;2023-01-25T02:24:58;103236.44;;;2.91;79.76
14117;BME280;7137;51.436;6.544;2023-01-25T02:28:04;103237.44;;;2.95;77.86
14117;BME280;7137;51.436;6.544;2023-01-25T02:31:07;103237.22;;;2.89;78.82
14117;BME280;7137;51.436;6.544;2023-01-25T02:34:09;103244.84;;;2.86;79.96
14117;BME280;7137;51.436;6.544;2023-01-25T02:37:13;103242.19;;;2.84;79.84
14117;BME280;7137;51.436;6.544;2023-01-25T02:40:17;103235.38;;;2.86;78.90
14117;BME280;7137;51.436;6.544;2023-01-25T02:43:19;103236.97;;;2.83;79.61
14117;BME280;7137;51.436;6.544;2023-01-25T02:46:23;103239.63;;;2.84;79.31
14117;BME280;7137;51.436;6.544;2023-01-25T02:49:26;103233.41;;;2.81;79.25
14117;BME280;7137;51.436;6.544;2023-01-25T02:52:28;103228.06;;;2.76;79.89
14117;BME280;7137;51.436;6.544;2023-01-25T02:55:31;103225.81;;;2.84;79.13
14117;BME280;7137;51.436;6.544;2023-01-25T02:58:32;103226.38;;;2.77;79.14
14117;BME280;7137;51.436;6.544;2023-01-25T03:01:35;103222.78;;;2.73;79.98
14117;BME280;7137;51.436;6.544;2023-01-25T03:04:37;103227.03;;;2.71;80.35
14117;BME280;7137;51.436;6.544;2023-01-25T03:07:38;103216.31;;;2.83;79.27
14117;BME280;7137;51.436;6.544;2023-01-25T03:10:41;103223.69;;;2.74;80.26
14117;BME280;7137;51.436;6.544;2023-01-25T03:13:43;103215.94;;;2.74;79.82
14117;BME280;7137;51.436;6.544;2023-01-25T03:16:44;103223.75;;;2.75;80.01
14117;BME280;7137;51.436;6.544;2023-01-25T03:19:46;103214.63;;;2.83;79.72
14117;BME280;7137;51.436;6.544;2023-01-25T03:22:47;103210.06;;;2.78;79.35
14117;BME280;7137;51.436;6.544;2023-01-25T03:25:50;103206.38;;;2.71;79.85
14117;BME280;7137;51.436;6.544;2023-01-25T03:28:52;103205.75;;;2.77;78.79
14117;BME280;7137;51.436;6.544;2023-01-25T03:31:53;103205.28;;;2.66;78.59
14117;BME280;7137;51.436;6.544;2023-01-25T03:34:55;103205.69;;;2.54;80.13
14117;BME280;7137;51.436;6.544;2023-01-25T03:37:58;103204.41;;;2.45;81.09
14117;BME280;7137;51.436;6.544;2023-01-25T03:41:01;103199.31;;;2.46;81.53
14117;BME280;7137;51.436;6.544;2023-01-25T03:44:03;103196.03;;;2.50;81.00
14117;BME280;7137;51.436;6.544;2023-01-25T03:47:04;103194.56;;;2.55;79.63
14117;BME280;7137;51.436;6.544;2023-01-25T03:50:07;103187.47;;;2.51;80.61
14117;BME280;7137;51.436;6.544;2023-01-25T03:53:09;103184.00;;;2.51;80.97
14117;BME280;7137;51.436;6.544;2023-01-25T03:56:20;103187.47;;;2.51;81.37
14117;BME280;7137;51.436;6.544;2023-01-25T03:59:23;103193.16;;;2.63;79.96
14117;BME280;7137;51.436;6.544;2023-01-25T04:02:24;103180.94;;;2.59;79.35
14117;BME280;7137;51.436;6.544;2023-01-25T04:05:26;103192.84;;;2.56;80.16
14117;BME280;7137;51.436;6.544;2023-01-25T04:08:27;103180.69;;;2.53;80.62
14117;BME280;7137;51.436;6.544;2023-01-25T04:11:30;103179.88;;;2.54;80.35
14117;BME280;7137;51.436;6.544;2023-01-25T04:14:32;103173.75;;;2.52;80.24
14117;BME280;7137;51.436;6.544;2023-01-25T04:17:33;103168.47;;;2.49;80.42
14117;BME280;7137;51.436;6.544;2023-01-25T04:20:35;103167.72;;;2.52;79.10
14117;BME280;7137;51.436;6.544;2023-01-25T04:23:37;103164.03;;;2.45;79.07
14117;BME280;7137;51.436;6.544;2023-01-25T04:26:40;103158.03;;;2.46;79.70
14117;BME280;7137;51.436;6.544;2023-01-25T04:29:41;103155.47;;;2.46;78.60
14117;BME280;7137;51.436;6.544;2023-01-25T04:32:43;103143.56;;;2.29;79.88
14117;BME280;7137;51.436;6.544;2023-01-25T04:35:45;103147.22;;;2.34;79.76
14117;BME280;7137;51.436;6.544;2023-01-25T04:38:46;103142.63;;;2.27;80.67
14117;BME280;7137;51.436;6.544;2023-01-25T04:41:49;103140.94;;;2.27;81.18
14117;BME280;7137;51.436;6.544;2023-01-25T04:44:51;103137.25;;;2.22;80.98
14117;BME280;7137;51.436;6.544;2023-01-25T04:47:55;103130.81;;;2.32;81.06
14117;BME280;7137;51.436;6.544;2023-01-25T04:50:57;103128.47;;;2.38;79.66
14117;BME280;7137;51.436;6.544;2023-01-25T04:53:59;103126.47;;;2.31;80.85
14117;BME280;7137;51.436;6.544;2023-01-25T04:57:01;103126.97;;;2.43;79.34
14117;BME280;7137;51.436;6.544;2023-01-25T05:00:05;103124.59;;;2.27;81.70
14117;BME280;7137;51.436;6.544;2023-01-25T05:03:06;103127.84;;;2.23;82.52
14117;BME280;7137;51.436;6.544;2023-01-25T05:06:08;103127.28;;;2.30;81.58
14117;BME280;7137;51.436;6.544;2023-01-25T05:09:11;103130.63;;;2.27;82.44
14117;BME280;7137;51.436;6.544;2023-01-25T05:12:14;103132.31;;;2.27;82.97
14117;BME280;7137;51.436;6.544;2023-01-25T05:15:15;103133.31;;;2.30;82.08
14117;BME280;7137;51.436;6.544;2023-01-25T05:18:17;103133.84;;;2.43;80.74
14117;BME280;7137;51.436;6.544;2023-01-25T05:21:18;103131.75;;;2.34;81.12
14117;BME280;7137;51.436;6.544;2023-01-25T05:24:37;103122.25;;;2.33;80.99
14117;BME280;7137;51.436;6.544;2023-01-25T05:27:42;103124.78;;;2.31;81.09
14117;BME280;7137;51.436;6.544;2023-01-25T05:30:42;103125.59;;;2.30;81.31
14117;BME280;7137;51.436;6.544;2023-01-25T05:33:44;103122.94;;;2.29;82.32
14117;BME280;7137;51.436;6.544;2023-01-25T05:36:45;103133.31;;;2.30;82.31
14117;BME280;7137;51.436;6.544;2023-01-25T05:39:47;103121.53;;;2.37;81.17
14117;BME280;7137;51.436;6.544;2023-01-25T05:42:53;103118.03;;;2.35;81.46
14117;BME280;7137;51.436;6.544;2023-01-25T05:45:55;103125.78;;;2.35;81.55
14117;BME280;7137;51.436;6.544;2023-01-25T05:48:57;103126.72;;;2.37;81.95
14117;BME280;7137;51.436;6.544;2023-01-25T05:51:59;103127.91;;;2.24;81.18
14117;BME280;7137;51.436;6.544;2023-01-25T05:55:00;103135.13;;;2.33;81.10
14117;BME280;7137;51.436;6.544;2023-01-25T05:58:03;103124.19;;;2.38;79.70
14117;BME280;7137;51.436;6.544;2023-01-25T06:01:06;103122.38;;;2.36;81.44
14117;BME280;7137;51.436;6.544;2023-01-25T06:04:09;103115.44;;;2.35;81.50
14117;BME280;7137;51.436;6.544;2023-01-25T06:07:13;103116.34;;;2.35;81.99
14117;BME280;7137;51.436;6.544;2023-01-25T06:10:14;103111.81;;;2.30;82.66
14117;BME280;7137;51.436;6.544;2023-01-25T06:13:17;103109.41;;;2.34;83.03
14117;BME280;7137;51.436;6.544;2023-01-25T06:16:19;103112.00;;;2.34;81.57
14117;BME280;7137;51.436;6.544;2023-01-25T06:19:20;103110.13;;;2.30;82.11
14117;BME280;7137;51.436;6.544;2023-01-25T06:22:22;103116.44;;;2.38;80.33
14117;BME280;7137;51.436;6.544;2023-01-25T06:25:24;103111.94;;;2.33;80.86
14117;BME280;7137;51.436;6.544;2023-01-25T06:28:28;103116.84;;;2.27;81.55
14117;BME280;7137;51.436;6.544;2023-01-25T06:31:30;103112.56;;;2.27;81.77
14117;BME280;7137;51.436;6.544;2023-01-25T06:34:32;103102.25;;;2.27;81.89
14117;BME280;7137;51.436;6.544;2023-01-25T06:37:33;103102.38;;;2.30;81.86
14117;BME280;7137;51.436;6.544;2023-01-25T06:40:35;103111.06;;;2.32;81.71
14117;BME280;7137;51.436;6.544;2023-01-25T06:43:38;103103.75;;;2.22;82.44
14117;BME280;7137;51.436;6.544;2023-01-25T06:46:39;103104.09;;;2.30;81.89
14117;BME280;7137;51.436;6.544;2023-01-25T06:49:42;103111.81;;;2.30;81.46
14117;BME280;7137;51.436;6.544;2023-01-25T06:52:50;103110.91;;;2.50;79.88
14117;BME280;7137;51.436;6.544;2023-01-25T06:55:59;103102.41;;;2.53;78.57
14117;BME280;7137;51.436;6.544;2023-01-25T06:59:02;103110.94;;;2.29;80.67
14117;BME280;7137;51.436;6.544;2023-01-25T07:02:03;103105.31;;;2.19;81.61
14117;BME280;7137;51.436;6.544;2023-01-25T07:05:06;103113.88;;;2.38;80.99
14117;BME280;7137;51.436;6.544;2023-01-25T07:08:08;103111.19;;;2.35;80.05
14117;BME280;7137;51.436;6.544;2023-01-25T07:11:10;103108.88;;;2.42;78.98
14117;BME280;7137;51.436;6.544;2023-01-25T07:14:14;103108.41;;;2.31;80.08
14117;BME280;7137;51.436;6.544;2023-01-25T07:17:16;103107.25;;;2.03;82.11
14117;BME280;7137;51.436;6.544;2023-01-25T07:20:17;103120.63;;;1.95;83.45
14117;BME280;7137;51.436;6.544;2023-01-25T07:23:19;103107.03;;;1.97;83.40
14117;BME280;7137;51.436;6.544;2023-01-25T07:26:22;103105.75;;;2.08;83.40
14117;BME280;7137;51.436;6.544;2023-01-25T07:29:25;103101.63;;;2.33;80.27
14117;BME280;7137;51.436;6.544;2023-01-25T07:32:26;103095.59;;;2.12;82.12
14117;BME280;7137;51.436;6.544;2023-01-25T07:35:28;103102.06;;;2.02;82.54
14117;BME280;7137;51.436;6.544;2023-01-25T07:38:29;103104.34;;;1.96;80.77
14117;BME280;7137;51.436;6.544;2023-01-25T07:41:31;103103.47;;;1.95;81.65
14117;BME280;7137;51.436;6.544;2023-01-25T07:44:34;103101.72;;;1.94;81.41
14117;BME280;7137;51.436;6.544;2023-01-25T07:47:35;103107.09;;;1.79;82.68
14117;BME280;7137;51.436;6.544;2023-01-25T07:50:37;103098.31;;;1.55;85.31
14117;BME280;7137;51.436;6.544;2023-01-25T07:53:39;103093.91;;;1.72;84.80
14117;BME280;7137;51.436;6.544;2023-01-25T07:56:41;103094.50;;;1.66;85.75
14117;BME280;7137;51.436;6.544;2023-01-25T07:59:44;103094.22;;;1.79;86.36
14117;BME280;7137;51.436;6.544;2023-01-25T08:02:48;103087.91;;;2.13;81.79
14117;BME280;7137;51.436;6.544;2023-01-25T08:05:50;103088.28;;;2.22;79.76
14117;BME280;7137;51.436;6.544;2023-01-25T08:08:52;103084.88;;;1.62;82.35
14117;BME280;7137;51.436;6.544;2023-01-25T08:11:54;103092.66;;;1.83;84.21
14117;BME280;7137;51.436;6.544;2023-01-25T08:14:57;103087.75;;;1.89;83.91
14117;BME280;7137;51.436;6.544;2023-01-25T08:17:59;103091.97;;;1.87;83.70
14117;BME280;7137;51.436;6.544;2023-01-25T08:21:00;103095.56;;;1.91;83.36
14117;BME280;7137;51.436;6.544;2023-01-25T08:24:04;103090.34;;;2.10;80.63
14117;BME280;7137;51.436;6.544;2023-01-25T08:27:06;103088.53;;;2.07;81.78
14117;BME280;7137;51.436;6.544;2023-01-25T08:30:10;103101.34;;;2.06;82.76
14117;BME280;7137;51.436;6.544;2023-01-25T08:33:12;103088.59;;;2.09;83.29
14117;BME280;7137;51.436;6.544;2023-01-25T08:36:14;103085.88;;;2.06;82.62
14117;BME280;7137;51.436;6.544;2023-01-25T08:39:17;103079.03;;;2.06;82.35
14117;BME280;7137;51.436;6.544;2023-01-25T08:42:18;103079.91;;;2.07;82.29
14117;BME280;7137;51.436;6.544;2023-01-25T08:45:21;103080.75;;;2.27;80.14
14117;BME280;7137;51.436;6.544;2023-01-25T08:48:23;103076.72;;;2.33;78.61
14117;BME280;7137;51.436;6.544;2023-01-25T08:51:25;103073.41;;;2.15;80.36
14117;BME280;7137;51.436;6.544;2023-01-25T08:54:27;103077.63;;;1.94;80.42
14117;BME280;7137;51.436;6.544;2023-01-25T08:57:29;103070.53;;;1.88;82.33
14117;BME280;7137;51.436;6.544;2023-01-25T09:00:32;103071.00;;;1.99;81.66
14117;BME280;7137;51.436;6.544;2023-01-25T09:03:34;103063.28;;;1.99;82.45
14117;BME280;7137;51.436;6.544;2023-01-25T09:06:36;103059.19;;;2.04;83.07
14117;BME280;7137;51.436;6.544;2023-01-25T09:09:38;103059.81;;;2.19;82.77
14117;BME280;7137;51.436;6.544;2023-01-25T09:12:39;103064.09;;;2.40;78.49
14117;BME280;7137;51.436;6.544;2023-01-25T09:15:42;103057.97;;;2.37;79.18
14117;BME280;7137;51.436;6.544;2023-01-25T09:18:44;103058.66;;;2.33;79.05
14117;BME280;7137;51.436;6.544;2023-01-25T09:21:47;103052.06;;;2.19;80.79
14117;BME280;7137;51.436;6.544;2023-01-25T09:24:48;103051.75;;;2.32;79.17
14117;BME280;7137;51.436;6.544;2023-01-25T09:27:53;103048.09;;;2.06;81.48
14117;BME280;7137;51.436;6.544;2023-01-25T09:30:56;103051.06;;;2.16;81.57
14117;BME280;7137;51.436;6.544;2023-01-25T09:33:58;103046.75;;;2.15;81.76
14117;BME280;7137;51.436;6.544;2023-01-25T09:36:59;103043.34;;;2.16;82.59
14117;BME280;7137;51.436;6.544;2023-01-25T09:40:01;103041.78;;;1.98;82.52
14117;BME280;7137;51.436;6.544;2023-01-25T09:43:05;103036.84;;;2.04;82.22
14117;BME280;7137;51.436;6.544;2023-01-25T09:46:23;103036.03;;;2.05;80.86
14117;BME280;7137;51.436;6.544;2023-01-25T09:49:36;103040.50;;;2.30;80.60
14117;BME280;7137;51.436;6.544;2023-01-25T09:53:15;103040.75;;;2.16;78.86
14117;BME280;7137;51.436;6.544;2023-01-25T09:56:22;103040.38;;;2.27;80.23
14117;BME280;7137;51.436;6.544;2023-01-25T09:59:26;103038.75;;;2.29;77.69
14117;BME280;7137;51.436;6.544;2023-01-25T10:02:38;103032.25;;;2.18;79.56
14117;BME280;7137;51.436;6.544;2023-01-25T10:05:43;103023.06;;;2.25;80.58
14117;BME280;7137;51.436;6.544;2023-01-25T10:08:52;103027.97;;;2.40;78.00
14117;BME280;7137;51.436;6.544;2023-01-25T10:11:58;103032.72;;;2.29;79.25
14117;BME280;7137;51.436;6.544;2023-01-25T10:15:16;103028.19;;;2.02;79.59
14117;BME280;7137;51.436;6.544;2023-01-25T10:18:25;103020.28;;;1.98;80.15
14117;BME280;7137;51.436;6.544;2023-01-25T10:21:34;103019.06;;;1.90;81.19
14117;BME280;7137;51.436;6.544;2023-01-25T10:25:03;103025.59;;;1.82;81.30
14117;BME280;7137;51.436;6.544;2023-01-25T10:28:15;103027.84;;;1.74;80.99
14117;BME280;7137;51.436;6.544;2023-01-25T10:31:28;103019.28;;;1.54;81.98
14117;BME280;7137;51.436;6.544;2023-01-25T10:34:37;103019.44;;;1.57;83.46
14117;BME280;7137;51.436;6.544;2023-01-25T10:37:40;103012.75;;;1.62;82.25
14117;BME280;7137;51.436;6.544;2023-01-25T10:40:45;103010.22;;;1.83;82.88
14117;BME280;7137;51.436;6.544;2023-01-25T10:43:47;102997.63;;;1.91;80.68
14117;BME280;7137;51.436;6.544;2023-01-25T10:47:16;102995.00;;;1.89;80.94
14117;BME280;7137;51.436;6.544;2023-01-25T10:50:48;102989.06;;;1.50;82.28
14117;BME280;7137;51.436;6.544;2023-01-25T10:53:58;102984.53;;;1.44;84.02
14117;BME280;7137;51.436;6.544;2023-01-25T10:57:00;102985.72;;;1.72;84.18
14117;BME280;7137;51.436;6.544;2023-01-25T11:00:06;102978.03;;;1.94;82.08
14117;BME280;7137;51.436;6.544;2023-01-25T11:03:18;102968.53;;;1.52;81.67
14117;BME280;7137;51.436;6.544;2023-01-25T11:06:46;102962.94;;;1.62;82.87
14117;BME280;7137;51.436;6.544;2023-01-25T11:09:50;102956.91;;;1.61;84.61
14117;BME280;7137;51.436;6.544;2023-01-25T11:13:15;102945.88;;;1.85;85.85
14117;BME280;7137;51.436;6.544;2023-01-25T11:16:26;102938.81;;;2.24;79.72
14117;BME280;7137;51.436;6.544;2023-01-25T11:19:34;102933.50;;;2.19;80.39
14117;BME280;7137;51.436;6.544;2023-01-25T11:22:48;102926.28;;;2.33;79.06
14117;BME280;7137;51.436;6.544;2023-01-25T11:25:50;102925.19;;;2.26;80.80
14117;BME280;7137;51.436;6.544;2023-01-25T11:29:05;102910.34;;;2.43;79.36
14117;BME280;7137;51.436;6.544;2023-01-25T11:32:16;102911.28;;;2.45;81.34
14117;BME280;7137;51.436;6.544;2023-01-25T11:35:28;102906.59;;;2.57;76.76
14117;BME280;7137;51.436;6.544;2023-01-25T11:38:33;102893.06;;;2.64;77.38
14117;BME280;7137;51.436;6.544;2023-01-25T11:41:45;102889.94;;;2.49;77.82
14117;BME280;7137;51.436;6.544;2023-01-25T11:48:44;102882.50;;;2.34;78.36
14117;BME280;7137;51.436;6.544;2023-01-25T11:51:53;102876.63;;;2.38;81.25
14117;BME280;7137;51.436;6.544;2023-01-25T11:55:06;102871.16;;;2.53;81.17
14117;BME280;7137;51.436;6.544;2023-01-25T11:58:26;102862.88;;;2.62;79.14
14117;BME280;7137;51.436;6.544;2023-01-25T12:01:36;102855.63;;;2.52;79.51
14117;BME280;7137;51.436;6.544;2023-01-25T12:04:52;102853.94;;;2.28;78.41
14117;BME280;7137;51.436;6.544;2023-01-25T12:08:06;102833.84;;;2.44;78.14
14117;BME280;7137;51.436;6.544;2023-01-25T12:11:22;102823.81;;;2.51;78.90
14117;BME280;7137;51.436;6.544;2023-01-25T12:14:35;102806.13;;;2.62;77.92
14117;BME280;7137;51.436;6.544;2023-01-25T12:17:54;102794.84;;;2.34;77.72
14117;BME280;7137;51.436;6.544;2023-01-25T12:21:05;102786.22;;;2.58;76.88
14117;BME280;7137;51.436;6.544;2023-01-25T12:24:22;102780.38;;;2.63;78.29
14117;BME280;7137;51.436;6.544;2023-01-25T12:27:40;102769.47;;;2.71;78.04
14117;BME280;7137;51.436;6.544;2023-01-25T12:30:50;102765.31;;;2.50;77.57
14117;BME280;7137;51.436;6.544;2023-01-25T12:33:57;102761.94;;;2.53;78.63
14117;BME280;7137;51.436;6.544;2023-01-25T12:37:04;102756.75;;;2.51;78.55
14117;BME280;7137;51.436;6.544;2023-01-25T12:40:12;102746.66;;;2.57;79.97
14117;BME280;7137;51.436;6.544;2023-01-25T12:43:20;102737.88;;;2.78;75.99
14117;BME280;7137;51.436;6.544;2023-01-25T12:46:27;102733.44;;;2.74;77.08
14117;BME280;7137;51.436;6.544;2023-01-25T12:49:35;102717.69;;;2.66;77.94
14117;BME280;7137;51.436;6.544;2023-01-25T12:52:45;102719.72;;;2.75;77.73
14117;BME280;7137;51.436;6.544;2023-01-25T12:55:47;102718.75;;;2.71;78.37
14117;BME280;7137;51.436;6.544;2023-01-25T12:58:52;102711.78;;;2.68;78.59
14117;BME280;7137;51.436;6.544;2023-01-25T13:02:06;102698.63;;;2.61;78.92
14117;BME280;7137;51.436;6.544;2023-01-25T13:05:23;102691.28;;;2.73;77.81
14117;BME280;7137;51.436;6.544;2023-01-25T13:08:37;102688.41;;;2.64;78.30
14117;BME280;7137;51.436;6.544;2023-01-25T13:11:41;102679.81;;;2.65;78.95
14117;BME280;7137;51.436;6.544;2023-01-25T13:14:45;102668.69;;;2.66;79.05
14117;BME280;7137;51.436;6.544;2023-01-25T13:17:46;102666.78;;;2.60;78.20
14117;BME280;7137;51.436;6.544;2023-01-25T13:20:50;102658.91;;;2.56;78.00
14117;BME280;7137;51.436;6.544;2023-01-25T13:24:13;102655.88;;;2.42;80.51
14117;BME280;7137;51.436;6.544;2023-01-25T13:27:24;102659.13;;;1.87;80.92
14117;BME280;7137;51.436;6.544;2023-01-25T13:30:31;102657.53;;;1.91;81.57
14117;BME280;7137;51.436;6.544;2023-01-25T13:33:34;102669.41;;;2.36;80.84
14117;BME280;7137;51.436;6.544;2023-01-25T13:36:43;102659.53;;;2.49;81.80
14117;BME280;7137;51.436;6.544;2023-01-25T13:39:46;102653.03;;;2.60;80.21
14117;BME280;7137;51.436;6.544;2023-01-25T13:42:58;102655.59;;;2.60;79.07
14117;BME280;7137;51.436;6.544;2023-01-25T13:46:03;102647.72;;;2.55;79.61
14117;BME280;7137;51.436;6.544;2023-01-25T13:49:18;102652.16;;;2.59;79.22
14117;BME280;7137;51.436;6.544;2023-01-25T13:52:23;102645.81;;;2.50;80.36
14117;BME280;7137;51.436;6.544;2023-01-25T13:55:26;102643.19;;;1.97;80.00
14117;BME280;7137;51.436;6.544;2023-01-25T13:58:30;102639.59;;;1.24;83.51
14117;BME280;7137;51.436;6.544;2023-01-25T14:01:34;102637.34;;;1.31;84.29
14117;BME280;7137;51.436;6.544;2023-01-25T14:04:36;102633.28;;;1.38;85.86
14117;BME280;7137;51.436;6.544;2023-01-25T14:07:38;102633.97;;;1.56;87.94
14117;BME280;7137;51.436;6.544;2023-01-25T14:10:42;102623.59;;;1.78;88.17
14117;BME280;7137;51.436;6.544;2023-01-25T14:13:58;102630.91;;;2.16;85.00
14117;BME280;7137;51.436;6.544;2023-01-25T14:17:16;102634.75;;;2.27;82.38
14117;BME280;7137;51.436;6.544;2023-01-25T14:20:20;102621.13;;;2.31;82.98
14117;BME280;7137;51.436;6.544;2023-01-25T14:23:23;102627.72;;;2.23;82.85
14117;BME280;7137;51.436;6.544;2023-01-25T14:26:26;102618.06;;;2.17;82.49
14117;BME280;7137;51.436;6.544;2023-01-25T14:29:28;102615.44;;;2.16;83.16
14117;BME280;7137;51.436;6.544;2023-01-25T14:32:31;102617.19;;;2.17;83.21
14117;BME280;7137;51.436;6.544;2023-01-25T14:35:36;102607.72;;;2.16;83.09
14117;BME280;7137;51.436;6.544;2023-01-25T14:38:39;102606.75;;;2.12;82.82
14117;BME280;7137;51.436;6.544;2023-01-25T14:41:41;102599.66;;;2.32;81.90
14117;BME280;7137;51.436;6.544;2023-01-25T14:44:46;102591.50;;;2.45;80.26
14117;BME280;7137;51.436;6.544;2023-01-25T14:47:49;102580.97;;;2.39;80.34
14117;BME280;7137;51.436;6.544;2023-01-25T14:51:01;102585.84;;;2.30;81.14
14117;BME280;7137;51.436;6.544;2023-01-25T14:54:05;102587.50;;;2.28;81.08
14117;BME280;7137;51.436;6.544;2023-01-25T14:57:27;102590.13;;;2.29;82.36
14117;BME280;7137;51.436;6.544;2023-01-25T15:00:31;102589.75;;;1.93;80.74
14117;BME280;7137;51.436;6.544;2023-01-25T15:03:40;102585.38;;;1.91;83.05
14117;BME280;7137;51.436;6.544;2023-01-25T15:06:48;102581.41;;;1.75;85.17
14117;BME280;7137;51.436;6.544;2023-01-25T15:10:01;102567.59;;;1.73;85.25
14117;BME280;7137;51.436;6.544;2023-01-25T15:13:18;102579.41;;;1.92;84.09
14117;BME280;7137;51.436;6.544;2023-01-25T15:16:31;102565.59;;;1.90;85.34
14117;BME280;7137;51.436;6.544;2023-01-25T15:19:34;102566.06;;;2.03;84.35
14117;BME280;7137;51.436;6.544;2023-01-25T15:22:36;102558.28;;;2.02;84.16
14117;BME280;7137;51.436;6.544;2023-01-25T15:25:47;102569.16;;;2.19;81.42
14117;BME280;7137;51.436;6.544;2023-01-25T15:28:50;102566.56;;;1.93;83.65
14117;BME280;7137;51.436;6.544;2023-01-25T15:31:54;102563.09;;;1.67;85.32
14117;BME280;7137;51.436;6.544;2023-01-25T15:34:57;102554.81;;;1.76;85.51
14117;BME280;7137;51.436;6.544;2023-01-25T15:37:59;102550.19;;;1.91;84.75
14117;BME280;7137;51.436;6.544;2023-01-25T15:41:00;102540.81;;;1.93;85.46
14117;BME280;7137;51.436;6.544;2023-01-25T15:44:02;102534.28;;;2.03;85.64
14117;BME280;7137;51.436;6.544;2023-01-25T15:47:03;102536.81;;;1.76;84.40
14117;BME280;7137;51.436;6.544;2023-01-25T15:50:16;102538.00;;;1.86;83.76
14117;BME280;7137;51.436;6.544;2023-01-25T15:53:18;102545.03;;;1.91;83.91
14117;BME280;7137;51.436;6.544;2023-01-25T15:56:21;102539.06;;;1.92;84.95
14117;BME280;7137;51.436;6.544;2023-01-25T15:59:27;102530.00;;;2.03;84.28
14117;BME280;7137;51.436;6.544;2023-01-25T16:02:28;102527.66;;;2.11;81.97
14117;BME280;7137;51.436;6.544;2023-01-25T16:05:31;102525.13;;;1.86;83.74
14117;BME280;7137;51.436;6.544;2023-01-25T16:08:33;102518.53;;;1.21;86.88
14117;BME280;7137;51.436;6.544;2023-01-25T16:11:34;102517.00;;;1.26;86.89
14117;BME280;7137;51.436;6.544;2023-01-25T16:14:36;102524.63;;;1.46;86.22
14117;BME280;7137;51.436;6.544;2023-01-25T16:17:37;102529.22;;;1.55;86.72
14117;BME280;7137;51.436;6.544;2023-01-25T16:20:41;102526.81;;;1.60;87.28
14117;BME280;7137;51.436;6.544;2023-01-25T16:23:43;102527.81;;;1.65;87.04
14117;BME280;7137;51.436;6.544;2023-01-25T16:26:47;102522.97;;;1.48;87.51
14117;BME280;7137;51.436;6.544;2023-01-25T16:29:50;102514.44;;;1.75;87.02
14117;BME280;7137;51.436;6.544;2023-01-25T16:32:52;102516.09;;;1.98;84.97
14117;BME280;7137;51.436;6.544;2023-01-25T16:36:02;102521.06;;;1.94;82.94